sensor_id;sensor_type;location;lat;lon;timestamp;temperature;humidity
16315;DHT22;8266;52.150;4.768;2023-08-06T00:01:05;18.50;99.90
16315;DHT22;8266;52.150;4.768;2023-08-06T00:03:32;18.50;99.90
16315;DHT22;8266;52.150;4.768;2023-08-06T00:05:59;18.50;99.90
16315;DHT22;8266;52.150;4.768;2023-08-06T00:08:26;18.50;99.90
16315;DHT22;8266;52.150;4.768;2023-08-06T00:10:54;18.50;99.90
16315;DHT22;8266;52.150;4.768;2023-08-06T00:13:21;18.50;99.90
16315;DHT22;8266;52.150;4.768;2023-08-06T00:15:48;18.50;99.90
16315;DHT22;8266;52.150;4.768;2023-08-06T00:18:15;18.50;99.90
16315;DHT22;8266;52.150;4.768;2023-08-06T00:20:42;18.50;99.90
16315;DHT22;8266;52.150;4.768;2023-08-06T00:23:09;18.50;99.90
16315;DHT22;8266;52.150;4.768;2023-08-06T00:25:36;18.50;99.90
16315;DHT22;8266;52.150;4.768;2023-08-06T00:28:05;18.50;99.90
16315;DHT22;8266;52.150;4.768;2023-08-06T00:30:32;18.50;99.90
16315;DHT22;8266;52.150;4.768;2023-08-06T00:32:59;18.50;99.90
16315;DHT22;8266;52.150;4.768;2023-08-06T00:35:26;18.60;99.90
16315;DHT22;8266;52.150;4.768;2023-08-06T00:37:53;18.60;99.90
16315;DHT22;8266;52.150;4.768;2023-08-06T00:40:20;18.60;99.90
16315;DHT22;8266;52.150;4.768;2023-08-06T00:42:48;18.60;99.90
16315;DHT22;8266;52.150;4.768;2023-08-06T00:45:16;18.60;99.90
16315;DHT22;8266;52.150;4.768;2023-08-06T00:47:43;18.50;99.90
16315;DHT22;8266;52.150;4.768;2023-08-06T00:50:11;18.60;99.90
16315;DHT22;8266;52.150;4.768;2023-08-06T00:52:38;18.60;99.90
16315;DHT22;8266;52.150;4.768;2023-08-06T00:55:06;18.60;99.90
16315;DHT22;8266;52.150;4.768;2023-08-06T00:57:33;18.50;99.90
16315;DHT22;8266;52.150;4.768;2023-08-06T01:00:01;18.60;99.90
16315;DHT22;8266;52.150;4.768;2023-08-06T01:02:29;18.60;99.90
16315;DHT22;8266;52.150;4.768;2023-08-06T01:04:56;18.60;99.90
16315;DHT22;8266;52.150;4.768;2023-08-06T01:07:35;18.60;99.90
16315;DHT22;8266;52.150;4.768;2023-08-06T01:10:19;18.60;99.90
16315;DHT22;8266;52.150;4.768;2023-08-06T01:12:51;18.60;99.90
16315;DHT22;8266;52.150;4.768;2023-08-06T01:15:24;18.60;99.90
16315;DHT22;8266;52.150;4.768;2023-08-06T01:17:56;18.60;99.90
16315;DHT22;8266;52.150;4.768;2023-08-06T01:20:29;18.60;99.90
16315;DHT22;8266;52.150;4.768;2023-08-06T01:22:56;18.60;99.90
16315;DHT22;8266;52.150;4.768;2023-08-06T01:25:29;18.70;99.90
16315;DHT22;8266;52.150;4.768;2023-08-06T01:28:04;18.70;99.90
16315;DHT22;8266;52.150;4.768;2023-08-06T01:30:33;18.70;99.90
16315;DHT22;8266;52.150;4.768;2023-08-06T01:33:04;18.70;99.90
16315;DHT22;8266;52.150;4.768;2023-08-06T01:35:34;18.70;99.90
16315;DHT22;8266;52.150;4.768;2023-08-06T01:38:02;18.60;99.90
16315;DHT22;8266;52.150;4.768;2023-08-06T01:40:29;18.70;99.90
16315;DHT22;8266;52.150;4.768;2023-08-06T01:42:57;18.60;99.90
16315;DHT22;8266;52.150;4.768;2023-08-06T01:45:24;18.70;99.90
16315;DHT22;8266;52.150;4.768;2023-08-06T01:47:51;18.70;99.90
16315;DHT22;8266;52.150;4.768;2023-08-06T01:50:18;18.70;99.90
16315;DHT22;8266;52.150;4.768;2023-08-06T01:52:47;18.60;99.90
16315;DHT22;8266;52.150;4.768;2023-08-06T01:55:14;18.60;99.90
16315;DHT22;8266;52.150;4.768;2023-08-06T01:57:41;18.60;99.90
16315;DHT22;8266;52.150;4.768;2023-08-06T02:00:09;18.60;99.90
16315;DHT22;8266;52.150;4.768;2023-08-06T02:02:36;18.60;99.90
16315;DHT22;8266;52.150;4.768;2023-08-06T02:05:03;18.60;99.90
16315;DHT22;8266;52.150;4.768;2023-08-06T02:07:30;18.60;99.90
16315;DHT22;8266;52.150;4.768;2023-08-06T02:09:59;18.60;99.90
16315;DHT22;8266;52.150;4.768;2023-08-06T02:12:26;18.60;99.90
16315;DHT22;8266;52.150;4.768;2023-08-06T02:14:53;18.60;99.90
16315;DHT22;8266;52.150;4.768;2023-08-06T02:17:19;18.60;99.90
16315;DHT22;8266;52.150;4.768;2023-08-06T02:19:46;18.60;99.90
16315;DHT22;8266;52.150;4.768;2023-08-06T02:22:13;18.50;99.90
16315;DHT22;8266;52.150;4.768;2023-08-06T02:24:40;18.50;99.90
16315;DHT22;8266;52.150;4.768;2023-08-06T02:27:09;18.50;99.90
16315;DHT22;8266;52.150;4.768;2023-08-06T02:29:36;18.50;99.90
16315;DHT22;8266;52.150;4.768;2023-08-06T02:32:03;18.50;99.90
16315;DHT22;8266;52.150;4.768;2023-08-06T02:34:30;18.50;99.90
16315;DHT22;8266;52.150;4.768;2023-08-06T02:36:57;18.50;99.90
16315;DHT22;8266;52.150;4.768;2023-08-06T02:39:24;18.50;99.90
16315;DHT22;8266;52.150;4.768;2023-08-06T02:41:52;18.50;99.90
16315;DHT22;8266;52.150;4.768;2023-08-06T02:44:20;18.50;99.90
16315;DHT22;8266;52.150;4.768;2023-08-06T02:46:47;18.50;99.90
16315;DHT22;8266;52.150;4.768;2023-08-06T02:49:14;18.50;99.90
16315;DHT22;8266;52.150;4.768;2023-08-06T02:51:41;18.50;99.90
16315;DHT22;8266;52.150;4.768;2023-08-06T02:54:08;18.50;99.90
16315;DHT22;8266;52.150;4.768;2023-08-06T02:56:35;18.50;99.90
16315;DHT22;8266;52.150;4.768;2023-08-06T02:59:02;18.50;99.90
16315;DHT22;8266;52.150;4.768;2023-08-06T03:01:30;18.50;99.90
16315;DHT22;8266;52.150;4.768;2023-08-06T03:03:57;18.50;99.90
16315;DHT22;8266;52.150;4.768;2023-08-06T03:06:24;18.50;99.90
16315;DHT22;8266;52.150;4.768;2023-08-06T03:08:52;18.50;99.90
16315;DHT22;8266;52.150;4.768;2023-08-06T03:11:20;18.50;99.90
16315;DHT22;8266;52.150;4.768;2023-08-06T03:13:47;18.50;99.90
16315;DHT22;8266;52.150;4.768;2023-08-06T03:16:14;18.50;99.90
16315;DHT22;8266;52.150;4.768;2023-08-06T03:18:43;18.50;99.90
16315;DHT22;8266;52.150;4.768;2023-08-06T03:21:10;18.50;99.90
16315;DHT22;8266;52.150;4.768;2023-08-06T03:23:37;18.50;99.90
16315;DHT22;8266;52.150;4.768;2023-08-06T03:26:04;18.50;99.90
16315;DHT22;8266;52.150;4.768;2023-08-06T03:28:31;18.50;99.90
16315;DHT22;8266;52.150;4.768;2023-08-06T03:31:01;18.50;99.90
16315;DHT22;8266;52.150;4.768;2023-08-06T03:33:28;18.50;99.90
16315;DHT22;8266;52.150;4.768;2023-08-06T03:35:56;18.50;99.90
16315;DHT22;8266;52.150;4.768;2023-08-06T03:38:23;18.40;99.90
16315;DHT22;8266;52.150;4.768;2023-08-06T03:40:50;18.40;99.90
16315;DHT22;8266;52.150;4.768;2023-08-06T03:43:17;18.40;99.90
16315;DHT22;8266;52.150;4.768;2023-08-06T03:45:45;18.40;99.90
16315;DHT22;8266;52.150;4.768;2023-08-06T03:48:12;18.40;99.90
16315;DHT22;8266;52.150;4.768;2023-08-06T03:50:39;18.40;99.90
16315;DHT22;8266;52.150;4.768;2023-08-06T03:53:08;18.30;99.90
16315;DHT22;8266;52.150;4.768;2023-08-06T03:55:35;18.30;99.90
16315;DHT22;8266;52.150;4.768;2023-08-06T03:58:02;18.30;99.90
16315;DHT22;8266;52.150;4.768;2023-08-06T04:00:29;18.20;99.90
16315;DHT22;8266;52.150;4.768;2023-08-06T04:02:56;18.10;99.90
16315;DHT22;8266;52.150;4.768;2023-08-06T04:05:23;18.00;99.90
16315;DHT22;8266;52.150;4.768;2023-08-06T04:07:50;17.90;99.90
16315;DHT22;8266;52.150;4.768;2023-08-06T04:10:18;17.80;99.90
16315;DHT22;8266;52.150;4.768;2023-08-06T04:12:45;17.60;99.90
16315;DHT22;8266;52.150;4.768;2023-08-06T04:15:12;17.50;99.90
16315;DHT22;8266;52.150;4.768;2023-08-06T04:17:39;17.40;99.90
16315;DHT22;8266;52.150;4.768;2023-08-06T04:20:07;17.30;99.90
16315;DHT22;8266;52.150;4.768;2023-08-06T04:22:34;17.20;99.90
16315;DHT22;8266;52.150;4.768;2023-08-06T04:25:01;17.10;99.90
16315;DHT22;8266;52.150;4.768;2023-08-06T04:27:30;17.10;99.90
16315;DHT22;8266;52.150;4.768;2023-08-06T04:29:57;17.00;99.90
16315;DHT22;8266;52.150;4.768;2023-08-06T04:32:24;17.00;99.90
16315;DHT22;8266;52.150;4.768;2023-08-06T04:34:51;16.90;99.90
16315;DHT22;8266;52.150;4.768;2023-08-06T04:37:18;16.90;99.90
16315;DHT22;8266;52.150;4.768;2023-08-06T04:39:45;16.90;99.90
16315;DHT22;8266;52.150;4.768;2023-08-06T04:42:12;16.90;99.90
16315;DHT22;8266;52.150;4.768;2023-08-06T04:44:41;16.90;99.90
16315;DHT22;8266;52.150;4.768;2023-08-06T04:47:08;16.90;99.90
16315;DHT22;8266;52.150;4.768;2023-08-06T04:49:35;16.90;99.90
16315;DHT22;8266;52.150;4.768;2023-08-06T04:52:02;16.90;99.90
16315;DHT22;8266;52.150;4.768;2023-08-06T04:54:29;16.90;99.90
16315;DHT22;8266;52.150;4.768;2023-08-06T04:56:56;16.90;99.90
16315;DHT22;8266;52.150;4.768;2023-08-06T04:59:23;16.90;99.90
16315;DHT22;8266;52.150;4.768;2023-08-06T05:01:51;17.00;99.90
16315;DHT22;8266;52.150;4.768;2023-08-06T05:04:18;17.00;99.90
16315;DHT22;8266;52.150;4.768;2023-08-06T05:06:45;17.00;99.90
16315;DHT22;8266;52.150;4.768;2023-08-06T05:09:12;17.00;99.90
16315;DHT22;8266;52.150;4.768;2023-08-06T05:11:39;17.00;99.90
16315;DHT22;8266;52.150;4.768;2023-08-06T05:14:06;17.00;99.90
16315;DHT22;8266;52.150;4.768;2023-08-06T05:16:32;17.10;99.90
16315;DHT22;8266;52.150;4.768;2023-08-06T05:19:01;17.10;99.90
16315;DHT22;8266;52.150;4.768;2023-08-06T05:21:28;17.10;99.90
16315;DHT22;8266;52.150;4.768;2023-08-06T05:23:55;17.10;99.90
16315;DHT22;8266;52.150;4.768;2023-08-06T05:26:22;17.10;99.90
16315;DHT22;8266;52.150;4.768;2023-08-06T05:28:48;17.10;99.90
16315;DHT22;8266;52.150;4.768;2023-08-06T05:31:15;17.10;99.90
16315;DHT22;8266;52.150;4.768;2023-08-06T05:33:42;17.20;99.90
16315;DHT22;8266;52.150;4.768;2023-08-06T05:36:11;17.20;99.90
16315;DHT22;8266;52.150;4.768;2023-08-06T05:38:38;17.20;99.90
16315;DHT22;8266;52.150;4.768;2023-08-06T05:41:04;17.20;99.90
16315;DHT22;8266;52.150;4.768;2023-08-06T05:43:31;17.20;99.90
16315;DHT22;8266;52.150;4.768;2023-08-06T05:45:58;17.20;99.90
16315;DHT22;8266;52.150;4.768;2023-08-06T05:48:25;17.20;99.90
16315;DHT22;8266;52.150;4.768;2023-08-06T05:50:53;17.20;99.90
16315;DHT22;8266;52.150;4.768;2023-08-06T05:53:22;17.20;99.90
16315;DHT22;8266;52.150;4.768;2023-08-06T05:55:49;17.30;99.90
16315;DHT22;8266;52.150;4.768;2023-08-06T05:58:15;17.30;99.90
16315;DHT22;8266;52.150;4.768;2023-08-06T06:00:43;17.30;99.90
16315;DHT22;8266;52.150;4.768;2023-08-06T06:03:10;17.30;99.90
16315;DHT22;8266;52.150;4.768;2023-08-06T06:05:38;17.30;99.90
16315;DHT22;8266;52.150;4.768;2023-08-06T06:08:05;17.30;99.90
16315;DHT22;8266;52.150;4.768;2023-08-06T06:10:34;17.30;99.90
16315;DHT22;8266;52.150;4.768;2023-08-06T06:13:01;17.40;99.90
16315;DHT22;8266;52.150;4.768;2023-08-06T06:15:28;17.40;99.90
16315;DHT22;8266;52.150;4.768;2023-08-06T06:17:55;17.40;99.90
16315;DHT22;8266;52.150;4.768;2023-08-06T06:20:23;17.40;99.90
16315;DHT22;8266;52.150;4.768;2023-08-06T06:22:49;17.40;99.90
16315;DHT22;8266;52.150;4.768;2023-08-06T06:25:16;17.50;99.90
16315;DHT22;8266;52.150;4.768;2023-08-06T06:27:45;17.50;99.90
16315;DHT22;8266;52.150;4.768;2023-08-06T06:30:12;17.50;99.90
16315;DHT22;8266;52.150;4.768;2023-08-06T06:32:40;17.50;99.90
16315;DHT22;8266;52.150;4.768;2023-08-06T06:35:08;17.60;99.90
16315;DHT22;8266;52.150;4.768;2023-08-06T06:37:35;17.60;99.90
16315;DHT22;8266;52.150;4.768;2023-08-06T06:40:02;17.60;99.90
16315;DHT22;8266;52.150;4.768;2023-08-06T06:42:29;17.60;99.90
16315;DHT22;8266;52.150;4.768;2023-08-06T06:44:58;17.70;99.90
16315;DHT22;8266;52.150;4.768;2023-08-06T06:47:25;17.70;99.90
16315;DHT22;8266;52.150;4.768;2023-08-06T06:49:52;17.70;99.90
16315;DHT22;8266;52.150;4.768;2023-08-06T06:52:19;17.70;99.90
16315;DHT22;8266;52.150;4.768;2023-08-06T06:54:46;17.70;99.90
16315;DHT22;8266;52.150;4.768;2023-08-06T06:57:13;17.70;99.90
16315;DHT22;8266;52.150;4.768;2023-08-06T06:59:40;17.70;99.90
16315;DHT22;8266;52.150;4.768;2023-08-06T07:02:08;17.80;99.90
16315;DHT22;8266;52.150;4.768;2023-08-06T07:04:36;17.80;99.90
16315;DHT22;8266;52.150;4.768;2023-08-06T07:07:03;17.80;99.90
16315;DHT22;8266;52.150;4.768;2023-08-06T07:09:30;17.80;99.90
16315;DHT22;8266;52.150;4.768;2023-08-06T07:11:57;17.80;99.90
16315;DHT22;8266;52.150;4.768;2023-08-06T07:14:25;17.80;99.90
16315;DHT22;8266;52.150;4.768;2023-08-06T07:16:52;17.80;99.90
16315;DHT22;8266;52.150;4.768;2023-08-06T07:19:20;17.80;99.90
16315;DHT22;8266;52.150;4.768;2023-08-06T07:21:47;17.80;99.90
16315;DHT22;8266;52.150;4.768;2023-08-06T07:24:14;17.80;99.90
16315;DHT22;8266;52.150;4.768;2023-08-06T07:26:41;17.80;99.90
16315;DHT22;8266;52.150;4.768;2023-08-06T07:29:08;17.80;99.90
16315;DHT22;8266;52.150;4.768;2023-08-06T07:31:35;17.80;99.90
16315;DHT22;8266;52.150;4.768;2023-08-06T07:34:02;17.80;99.90
16315;DHT22;8266;52.150;4.768;2023-08-06T07:36:30;17.80;99.90
16315;DHT22;8266;52.150;4.768;2023-08-06T07:38:58;17.80;99.90
16315;DHT22;8266;52.150;4.768;2023-08-06T07:41:25;17.80;99.90
16315;DHT22;8266;52.150;4.768;2023-08-06T07:43:52;17.90;99.90
16315;DHT22;8266;52.150;4.768;2023-08-06T07:46:19;17.90;99.90
16315;DHT22;8266;52.150;4.768;2023-08-06T07:48:46;17.90;99.90
16315;DHT22;8266;52.150;4.768;2023-08-06T07:51:13;17.90;99.90
16315;DHT22;8266;52.150;4.768;2023-08-06T07:53:42;17.90;99.90
16315;DHT22;8266;52.150;4.768;2023-08-06T07:56:09;17.90;99.90
16315;DHT22;8266;52.150;4.768;2023-08-06T07:58:35;18.00;99.90
16315;DHT22;8266;52.150;4.768;2023-08-06T08:01:02;18.00;99.90
16315;DHT22;8266;52.150;4.768;2023-08-06T08:03:29;18.00;99.90
16315;DHT22;8266;52.150;4.768;2023-08-06T08:05:56;18.00;99.90
16315;DHT22;8266;52.150;4.768;2023-08-06T08:08:24;18.10;99.90
16315;DHT22;8266;52.150;4.768;2023-08-06T08:10:53;18.10;99.90
16315;DHT22;8266;52.150;4.768;2023-08-06T08:13:20;18.10;99.90
16315;DHT22;8266;52.150;4.768;2023-08-06T08:15:47;18.20;99.90
16315;DHT22;8266;52.150;4.768;2023-08-06T08:18:14;18.20;99.90
16315;DHT22;8266;52.150;4.768;2023-08-06T08:20:41;18.20;99.90
16315;DHT22;8266;52.150;4.768;2023-08-06T08:23:08;18.20;99.90
16315;DHT22;8266;52.150;4.768;2023-08-06T08:25:35;18.20;99.90
16315;DHT22;8266;52.150;4.768;2023-08-06T08:28:04;18.20;99.90
16315;DHT22;8266;52.150;4.768;2023-08-06T08:30:31;18.20;99.90
16315;DHT22;8266;52.150;4.768;2023-08-06T08:32:58;18.20;99.90
16315;DHT22;8266;52.150;4.768;2023-08-06T08:35:25;18.30;99.90
16315;DHT22;8266;52.150;4.768;2023-08-06T08:37:52;18.30;99.90
16315;DHT22;8266;52.150;4.768;2023-08-06T08:40:20;18.30;99.90
16315;DHT22;8266;52.150;4.768;2023-08-06T08:42:50;18.30;99.90
16315;DHT22;8266;52.150;4.768;2023-08-06T08:45:20;18.30;99.90
16315;DHT22;8266;52.150;4.768;2023-08-06T08:47:49;18.30;99.90
16315;DHT22;8266;52.150;4.768;2023-08-06T08:50:17;18.30;99.90
16315;DHT22;8266;52.150;4.768;2023-08-06T08:52:45;18.30;99.90
16315;DHT22;8266;52.150;4.768;2023-08-06T08:55:15;18.30;99.90
16315;DHT22;8266;52.150;4.768;2023-08-06T08:57:42;18.30;99.90
16315;DHT22;8266;52.150;4.768;2023-08-06T09:00:10;18.30;99.90
16315;DHT22;8266;52.150;4.768;2023-08-06T09:02:39;18.30;99.90
16315;DHT22;8266;52.150;4.768;2023-08-06T09:05:07;18.30;99.90
16315;DHT22;8266;52.150;4.768;2023-08-06T09:07:40;18.30;99.90
16315;DHT22;8266;52.150;4.768;2023-08-06T09:10:10;18.40;99.90
16315;DHT22;8266;52.150;4.768;2023-08-06T09:12:39;18.40;99.90
16315;DHT22;8266;52.150;4.768;2023-08-06T09:15:07;18.40;99.90
16315;DHT22;8266;52.150;4.768;2023-08-06T09:17:34;18.40;99.90
16315;DHT22;8266;52.150;4.768;2023-08-06T09:20:11;18.40;99.90
16315;DHT22;8266;52.150;4.768;2023-08-06T09:22:38;18.40;99.90
16315;DHT22;8266;52.150;4.768;2023-08-06T09:25:05;18.50;99.90
16315;DHT22;8266;52.150;4.768;2023-08-06T09:27:35;18.50;99.90
16315;DHT22;8266;52.150;4.768;2023-08-06T09:30:03;18.50;99.90
16315;DHT22;8266;52.150;4.768;2023-08-06T09:32:45;18.60;99.90
16315;DHT22;8266;52.150;4.768;2023-08-06T09:35:17;18.60;99.90
16315;DHT22;8266;52.150;4.768;2023-08-06T09:37:44;18.60;99.90
16315;DHT22;8266;52.150;4.768;2023-08-06T09:40:25;18.70;99.90
16315;DHT22;8266;52.150;4.768;2023-08-06T09:42:52;18.80;99.90
16315;DHT22;8266;52.150;4.768;2023-08-06T09:45:19;18.80;99.90
16315;DHT22;8266;52.150;4.768;2023-08-06T09:47:47;18.80;99.90
16315;DHT22;8266;52.150;4.768;2023-08-06T09:50:20;18.80;99.90
16315;DHT22;8266;52.150;4.768;2023-08-06T09:52:47;18.80;99.90
16315;DHT22;8266;52.150;4.768;2023-08-06T09:55:15;18.80;99.90
16315;DHT22;8266;52.150;4.768;2023-08-06T09:57:42;18.80;99.90
16315;DHT22;8266;52.150;4.768;2023-08-06T10:00:10;18.80;99.90
16315;DHT22;8266;52.150;4.768;2023-08-06T10:02:39;18.80;99.90
16315;DHT22;8266;52.150;4.768;2023-08-06T10:05:08;18.80;99.90
16315;DHT22;8266;52.150;4.768;2023-08-06T10:07:37;18.80;99.90
16315;DHT22;8266;52.150;4.768;2023-08-06T10:10:05;18.80;99.90
16315;DHT22;8266;52.150;4.768;2023-08-06T10:12:34;18.80;99.90
16315;DHT22;8266;52.150;4.768;2023-08-06T10:15:04;18.90;99.90
16315;DHT22;8266;52.150;4.768;2023-08-06T10:17:34;18.90;99.90
16315;DHT22;8266;52.150;4.768;2023-08-06T10:20:04;18.90;99.90
16315;DHT22;8266;52.150;4.768;2023-08-06T10:22:32;18.90;99.90
16315;DHT22;8266;52.150;4.768;2023-08-06T10:25:02;19.00;99.90
16315;DHT22;8266;52.150;4.768;2023-08-06T10:27:32;19.00;99.90
16315;DHT22;8266;52.150;4.768;2023-08-06T10:30:22;18.90;99.90
16315;DHT22;8266;52.150;4.768;2023-08-06T10:32:50;18.90;99.90
16315;DHT22;8266;52.150;4.768;2023-08-06T10:35:31;19.00;99.90
16315;DHT22;8266;52.150;4.768;2023-08-06T10:38:05;19.00;99.90
16315;DHT22;8266;52.150;4.768;2023-08-06T10:40:33;19.00;99.90
16315;DHT22;8266;52.150;4.768;2023-08-06T10:43:01;19.00;99.90
16315;DHT22;8266;52.150;4.768;2023-08-06T10:45:28;19.00;99.90
16315;DHT22;8266;52.150;4.768;2023-08-06T10:47:56;19.10;99.90
16315;DHT22;8266;52.150;4.768;2023-08-06T10:50:24;19.10;99.90
16315;DHT22;8266;52.150;4.768;2023-08-06T10:52:52;19.10;99.90
16315;DHT22;8266;52.150;4.768;2023-08-06T10:55:23;19.20;99.90
16315;DHT22;8266;52.150;4.768;2023-08-06T10:57:51;19.30;99.90
16315;DHT22;8266;52.150;4.768;2023-08-06T11:00:18;19.40;99.90
16315;DHT22;8266;52.150;4.768;2023-08-06T11:02:47;19.40;99.90
16315;DHT22;8266;52.150;4.768;2023-08-06T11:05:14;19.50;99.90
16315;DHT22;8266;52.150;4.768;2023-08-06T11:07:41;19.60;99.90
16315;DHT22;8266;52.150;4.768;2023-08-06T11:10:10;19.70;99.90
16315;DHT22;8266;52.150;4.768;2023-08-06T11:12:37;19.70;99.90
16315;DHT22;8266;52.150;4.768;2023-08-06T11:15:07;19.80;99.90
16315;DHT22;8266;52.150;4.768;2023-08-06T11:17:34;19.80;99.90
16315;DHT22;8266;52.150;4.768;2023-08-06T11:20:03;19.90;99.90
16315;DHT22;8266;52.150;4.768;2023-08-06T11:22:31;20.00;99.90
16315;DHT22;8266;52.150;4.768;2023-08-06T11:24:58;20.00;99.90
16315;DHT22;8266;52.150;4.768;2023-08-06T11:27:26;20.10;99.90
16315;DHT22;8266;52.150;4.768;2023-08-06T11:29:54;20.10;99.90
16315;DHT22;8266;52.150;4.768;2023-08-06T11:32:22;20.20;99.90
16315;DHT22;8266;52.150;4.768;2023-08-06T11:34:50;20.20;99.90
16315;DHT22;8266;52.150;4.768;2023-08-06T11:37:21;20.20;99.90
16315;DHT22;8266;52.150;4.768;2023-08-06T11:39:49;20.30;99.90
16315;DHT22;8266;52.150;4.768;2023-08-06T11:42:16;20.40;99.90
16315;DHT22;8266;52.150;4.768;2023-08-06T11:44:43;20.40;99.90
16315;DHT22;8266;52.150;4.768;2023-08-06T11:47:13;20.50;99.90
16315;DHT22;8266;52.150;4.768;2023-08-06T11:49:44;20.50;99.90
16315;DHT22;8266;52.150;4.768;2023-08-06T11:52:14;20.60;99.90
16315;DHT22;8266;52.150;4.768;2023-08-06T11:54:43;20.60;99.90
16315;DHT22;8266;52.150;4.768;2023-08-06T11:57:11;20.70;99.90
16315;DHT22;8266;52.150;4.768;2023-08-06T11:59:38;20.70;99.90
16315;DHT22;8266;52.150;4.768;2023-08-06T12:02:08;20.80;99.90
16315;DHT22;8266;52.150;4.768;2023-08-06T12:05:00;20.90;99.90
16315;DHT22;8266;52.150;4.768;2023-08-06T12:07:31;21.00;99.90
16315;DHT22;8266;52.150;4.768;2023-08-06T12:09:59;21.00;99.90
16315;DHT22;8266;52.150;4.768;2023-08-06T12:12:26;21.10;99.90
16315;DHT22;8266;52.150;4.768;2023-08-06T12:14:54;21.20;99.90
16315;DHT22;8266;52.150;4.768;2023-08-06T12:17:21;21.20;99.90
16315;DHT22;8266;52.150;4.768;2023-08-06T12:19:48;21.30;99.90
16315;DHT22;8266;52.150;4.768;2023-08-06T12:22:16;21.30;99.90
16315;DHT22;8266;52.150;4.768;2023-08-06T12:24:46;21.40;99.90
16315;DHT22;8266;52.150;4.768;2023-08-06T12:27:14;21.40;99.90
16315;DHT22;8266;52.150;4.768;2023-08-06T12:29:42;21.50;99.90
16315;DHT22;8266;52.150;4.768;2023-08-06T12:32:09;21.50;99.90
16315;DHT22;8266;52.150;4.768;2023-08-06T12:34:37;21.60;99.90
16315;DHT22;8266;52.150;4.768;2023-08-06T12:37:05;21.60;99.90
16315;DHT22;8266;52.150;4.768;2023-08-06T12:39:34;21.60;99.90
16315;DHT22;8266;52.150;4.768;2023-08-06T12:42:01;21.70;99.90
16315;DHT22;8266;52.150;4.768;2023-08-06T12:44:29;21.70;99.90
16315;DHT22;8266;52.150;4.768;2023-08-06T12:46:56;21.70;99.90
16315;DHT22;8266;52.150;4.768;2023-08-06T12:49:24;21.70;99.90
16315;DHT22;8266;52.150;4.768;2023-08-06T12:51:52;21.70;99.90
16315;DHT22;8266;52.150;4.768;2023-08-06T12:54:20;21.70;99.90
16315;DHT22;8266;52.150;4.768;2023-08-06T12:56:48;21.70;99.90
16315;DHT22;8266;52.150;4.768;2023-08-06T12:59:16;21.70;99.90
16315;DHT22;8266;52.150;4.768;2023-08-06T13:01:44;21.70;99.90
16315;DHT22;8266;52.150;4.768;2023-08-06T13:04:12;21.70;99.90
16315;DHT22;8266;52.150;4.768;2023-08-06T13:06:39;21.70;99.90
16315;DHT22;8266;52.150;4.768;2023-08-06T13:09:06;21.70;99.90
16315;DHT22;8266;52.150;4.768;2023-08-06T13:11:34;21.60;99.90
16315;DHT22;8266;52.150;4.768;2023-08-06T13:14:06;21.60;99.90
16315;DHT22;8266;52.150;4.768;2023-08-06T13:16:34;21.60;99.90
16315;DHT22;8266;52.150;4.768;2023-08-06T13:19:01;21.60;99.90
16315;DHT22;8266;52.150;4.768;2023-08-06T13:21:32;21.60;99.90
16315;DHT22;8266;52.150;4.768;2023-08-06T13:23:59;21.60;99.90
16315;DHT22;8266;52.150;4.768;2023-08-06T13:26:27;21.50;99.90
16315;DHT22;8266;52.150;4.768;2023-08-06T13:28:54;21.50;99.90
16315;DHT22;8266;52.150;4.768;2023-08-06T13:31:22;21.50;99.90
16315;DHT22;8266;52.150;4.768;2023-08-06T13:33:49;21.40;99.90
16315;DHT22;8266;52.150;4.768;2023-08-06T13:36:16;21.30;99.90
16315;DHT22;8266;52.150;4.768;2023-08-06T13:38:44;21.30;99.90
16315;DHT22;8266;52.150;4.768;2023-08-06T13:41:11;21.20;99.90
16315;DHT22;8266;52.150;4.768;2023-08-06T13:43:38;21.10;99.90
16315;DHT22;8266;52.150;4.768;2023-08-06T13:46:05;21.10;99.90
16315;DHT22;8266;52.150;4.768;2023-08-06T13:48:33;21.00;99.90
16315;DHT22;8266;52.150;4.768;2023-08-06T13:51:00;21.00;99.90
16315;DHT22;8266;52.150;4.768;2023-08-06T13:53:27;21.10;99.90
16315;DHT22;8266;52.150;4.768;2023-08-06T13:55:55;21.10;99.90
16315;DHT22;8266;52.150;4.768;2023-08-06T13:58:23;21.20;99.90
16315;DHT22;8266;52.150;4.768;2023-08-06T14:00:52;21.30;99.90
16315;DHT22;8266;52.150;4.768;2023-08-06T14:03:20;21.40;99.90
16315;DHT22;8266;52.150;4.768;2023-08-06T14:05:48;21.40;99.90
16315;DHT22;8266;52.150;4.768;2023-08-06T14:08:15;21.40;99.90
16315;DHT22;8266;52.150;4.768;2023-08-06T14:10:43;21.40;99.90
16315;DHT22;8266;52.150;4.768;2023-08-06T14:13:10;21.40;99.90
16315;DHT22;8266;52.150;4.768;2023-08-06T14:15:38;21.30;99.90
16315;DHT22;8266;52.150;4.768;2023-08-06T14:18:06;21.20;99.90
16315;DHT22;8266;52.150;4.768;2023-08-06T14:20:34;21.10;99.90
16315;DHT22;8266;52.150;4.768;2023-08-06T14:23:02;21.10;99.90
16315;DHT22;8266;52.150;4.768;2023-08-06T14:25:29;21.00;99.90
16315;DHT22;8266;52.150;4.768;2023-08-06T14:27:57;20.90;99.90
16315;DHT22;8266;52.150;4.768;2023-08-06T14:30:24;20.80;99.90
16315;DHT22;8266;52.150;4.768;2023-08-06T14:32:51;20.60;99.90
16315;DHT22;8266;52.150;4.768;2023-08-06T14:35:18;20.50;99.90
16315;DHT22;8266;52.150;4.768;2023-08-06T14:37:45;20.50;99.90
16315;DHT22;8266;52.150;4.768;2023-08-06T14:40:13;20.40;99.90
16315;DHT22;8266;52.150;4.768;2023-08-06T14:42:40;20.40;99.90
16315;DHT22;8266;52.150;4.768;2023-08-06T14:45:08;20.30;99.90
16315;DHT22;8266;52.150;4.768;2023-08-06T14:47:35;20.30;99.90
16315;DHT22;8266;52.150;4.768;2023-08-06T14:50:02;20.40;99.90
16315;DHT22;8266;52.150;4.768;2023-08-06T14:52:29;20.30;99.90
16315;DHT22;8266;52.150;4.768;2023-08-06T14:54:57;20.30;99.90
16315;DHT22;8266;52.150;4.768;2023-08-06T14:57:25;20.30;99.90
16315;DHT22;8266;52.150;4.768;2023-08-06T14:59:53;20.30;99.90
16315;DHT22;8266;52.150;4.768;2023-08-06T15:02:20;20.20;99.90
16315;DHT22;8266;52.150;4.768;2023-08-06T15:04:47;20.20;99.90
16315;DHT22;8266;52.150;4.768;2023-08-06T15:07:15;20.20;99.90
16315;DHT22;8266;52.150;4.768;2023-08-06T15:09:42;20.20;99.90
16315;DHT22;8266;52.150;4.768;2023-08-06T15:12:10;20.20;99.90
16315;DHT22;8266;52.150;4.768;2023-08-06T15:14:39;20.10;99.90
16315;DHT22;8266;52.150;4.768;2023-08-06T15:17:06;20.10;99.90
16315;DHT22;8266;52.150;4.768;2023-08-06T15:19:33;20.00;99.90
16315;DHT22;8266;52.150;4.768;2023-08-06T15:22:00;19.90;99.90
16315;DHT22;8266;52.150;4.768;2023-08-06T15:24:27;19.80;99.90
16315;DHT22;8266;52.150;4.768;2023-08-06T15:26:54;19.70;99.90
16315;DHT22;8266;52.150;4.768;2023-08-06T15:29:21;19.60;99.90
16315;DHT22;8266;52.150;4.768;2023-08-06T15:31:49;19.50;99.90
16315;DHT22;8266;52.150;4.768;2023-08-06T15:34:16;19.50;99.90
16315;DHT22;8266;52.150;4.768;2023-08-06T15:36:43;19.50;99.90
16315;DHT22;8266;52.150;4.768;2023-08-06T15:39:10;19.50;99.90
16315;DHT22;8266;52.150;4.768;2023-08-06T15:41:37;19.50;99.90
16315;DHT22;8266;52.150;4.768;2023-08-06T15:44:04;19.60;99.90
16315;DHT22;8266;52.150;4.768;2023-08-06T15:46:31;19.70;99.90
16315;DHT22;8266;52.150;4.768;2023-08-06T15:49:01;19.70;99.90